createdAt,value
2019-03-25T00:01:39.753Z,68.30
2019-03-25T00:04:10.345Z,69.00
2019-03-25T00:06:40.882Z,69.00
2019-03-25T00:09:11.454Z,69.20
2019-03-25T00:11:42.079Z,69.00
2019-03-25T00:14:12.631Z,69.20
2019-03-25T00:16:43.244Z,70.00
2019-03-25T00:19:13.858Z,70.60
2019-03-25T00:21:44.554Z,70.50
2019-03-25T00:24:15.226Z,70.60
2019-03-25T00:26:45.984Z,70.30
2019-03-25T00:29:16.592Z,68.70
2019-03-25T00:31:47.203Z,68.40
2019-03-25T00:34:17.758Z,67.40
2019-03-25T00:36:48.306Z,66.80
2019-03-25T00:39:18.916Z,66.30
2019-03-25T00:41:49.515Z,67.20
2019-03-25T00:44:20.155Z,66.20
2019-03-25T00:46:50.722Z,66.10
2019-03-25T00:49:21.311Z,66.20
2019-03-25T00:51:51.867Z,66.20
2019-03-25T00:54:22.447Z,66.10
2019-03-25T00:56:52.998Z,66.20
2019-03-25T00:59:23.578Z,66.00
2019-03-25T01:01:54.127Z,66.00
2019-03-25T01:04:24.787Z,66.30
2019-03-25T01:06:55.311Z,66.10
2019-03-25T01:09:25.863Z,66.60
2019-03-25T01:11:56.393Z,66.80
2019-03-25T01:14:26.950Z,67.10
2019-03-25T01:16:57.507Z,67.80
2019-03-25T01:19:28.091Z,68.20
2019-03-25T01:21:58.615Z,68.00
2019-03-25T01:24:29.202Z,67.90
2019-03-25T01:26:59.856Z,68.20
2019-03-25T01:29:30.510Z,68.20
2019-03-25T01:32:01.039Z,69.60
2019-03-25T01:34:31.626Z,68.70
2019-03-25T01:37:02.172Z,68.80
2019-03-25T01:39:32.731Z,69.40
2019-03-25T01:42:03.295Z,70.30
2019-03-25T01:44:33.851Z,70.00
2019-03-25T01:47:04.399Z,70.30
2019-03-25T01:49:34.996Z,71.00
2019-03-25T01:52:05.527Z,71.00
2019-03-25T01:54:36.093Z,70.80
2019-03-25T01:57:06.779Z,70.90
2019-03-25T01:59:37.360Z,70.80
2019-03-25T02:02:07.878Z,71.20
2019-03-25T02:04:38.451Z,71.50
2019-03-25T02:07:08.970Z,71.50
2019-03-25T02:09:39.538Z,71.30
2019-03-25T02:12:10.095Z,71.30
2019-03-25T02:14:40.732Z,71.20
2019-03-25T02:17:11.244Z,71.00
2019-03-25T02:19:41.792Z,70.80
2019-03-25T02:22:12.323Z,70.80
2019-03-25T02:24:42.872Z,71.90
2019-03-25T02:27:13.401Z,71.30
2019-03-25T02:29:44.035Z,71.50
2019-03-25T02:32:14.664Z,71.80
2019-03-25T02:34:45.239Z,72.00
2019-03-25T02:37:15.756Z,72.30
2019-03-25T02:39:46.343Z,72.90
2019-03-25T02:42:16.864Z,73.20
2019-03-25T02:44:47.743Z,73.20
2019-03-25T02:47:18.279Z,73.20
2019-03-25T02:49:48.848Z,73.30
2019-03-25T02:52:19.378Z,73.50
2019-03-25T02:54:49.965Z,73.60
2019-03-25T02:57:20.972Z,73.70
2019-03-25T02:59:51.518Z,73.80
2019-03-25T03:02:22.415Z,74.00
2019-03-25T03:04:53.071Z,74.70
2019-03-25T03:07:23.665Z,74.80
2019-03-25T03:09:54.352Z,74.60
2019-03-25T03:12:24.945Z,74.30
2019-03-25T03:14:55.514Z,73.90
2019-03-25T03:17:26.061Z,73.70
2019-03-25T03:19:56.638Z,73.50
2019-03-25T03:22:27.160Z,73.50
2019-03-25T03:24:57.755Z,73.50
2019-03-25T03:27:29.896Z,73.50
2019-03-25T03:30:01.106Z,73.50
2019-03-25T03:32:31.703Z,73.50
2019-03-25T03:35:02.446Z,73.60
2019-03-25T03:37:33.149Z,73.40
2019-03-25T03:40:04.169Z,73.40
2019-03-25T03:42:34.797Z,73.40
2019-03-25T03:45:06.000Z,73.50
2019-03-25T03:47:36.540Z,73.40
2019-03-25T03:50:07.772Z,73.20
2019-03-25T03:52:38.613Z,73.10
2019-03-25T03:55:09.279Z,73.10
2019-03-25T03:57:40.048Z,73.40
2019-03-25T04:00:13.767Z,73.60
2019-03-25T04:02:44.324Z,73.80
2019-03-25T04:05:14.944Z,73.80
2019-03-25T04:07:45.581Z,74.30
2019-03-25T04:10:16.235Z,74.90
2019-03-25T04:12:46.764Z,74.80
2019-03-25T04:15:25.714Z,74.90
2019-03-25T04:17:56.268Z,75.10
2019-03-25T04:20:26.828Z,75.40
2019-03-25T04:22:57.535Z,75.50
2019-03-25T04:25:28.127Z,75.40
2019-03-25T04:27:58.901Z,75.40
2019-03-25T04:30:29.647Z,75.50
2019-03-25T04:33:00.190Z,76.20
2019-03-25T04:35:31.831Z,76.10
2019-03-25T04:38:02.453Z,76.50
2019-03-25T04:40:33.051Z,76.90
2019-03-25T04:43:03.667Z,77.10
2019-03-25T04:45:34.232Z,77.10
2019-03-25T04:48:04.754Z,77.40
2019-03-25T04:50:35.407Z,77.50
2019-03-25T04:53:05.940Z,77.60
2019-03-25T04:55:36.707Z,77.70
2019-03-25T04:58:07.256Z,77.80
2019-03-25T05:00:38.596Z,77.90
2019-03-25T05:03:09.191Z,78.00
2019-03-25T05:05:39.814Z,78.00
2019-03-25T05:08:10.447Z,78.30
2019-03-25T05:10:41.215Z,78.30
2019-03-25T05:13:11.746Z,78.50
2019-03-25T05:15:42.400Z,78.30
2019-03-25T05:18:12.943Z,78.10
2019-03-25T05:20:43.513Z,78.10
2019-03-25T05:23:14.042Z,78.00
2019-03-25T05:25:44.595Z,77.90
2019-03-25T05:28:15.380Z,77.70
2019-03-25T05:30:46.002Z,77.60
2019-03-25T05:33:16.573Z,78.40
2019-03-25T05:35:47.234Z,77.20
2019-03-25T05:38:17.803Z,76.90
2019-03-25T05:40:48.444Z,77.20
2019-03-25T05:43:21.124Z,77.10
2019-03-25T05:45:51.482Z,76.90
2019-03-25T05:48:22.060Z,76.60
2019-03-25T05:50:53.873Z,76.50
2019-03-25T05:53:24.417Z,76.50
2019-03-25T05:55:55.039Z,76.10
2019-03-25T05:58:25.619Z,76.00
2019-03-25T06:00:56.522Z,75.90
2019-03-25T06:03:27.430Z,76.10
2019-03-25T06:05:57.994Z,76.40
2019-03-25T06:08:28.533Z,76.40
2019-03-25T06:10:59.182Z,76.60
2019-03-25T06:13:29.740Z,76.50
2019-03-25T06:16:00.411Z,76.60
2019-03-25T06:18:30.983Z,76.50
2019-03-25T06:21:01.562Z,76.30
2019-03-25T06:23:32.099Z,76.40
2019-03-25T06:26:02.841Z,76.40
2019-03-25T06:28:33.445Z,76.20
2019-03-25T06:31:04.047Z,75.90
2019-03-25T06:33:34.587Z,75.80
2019-03-25T06:36:05.243Z,75.00
2019-03-25T06:38:36.883Z,74.70
2019-03-25T06:41:07.483Z,74.60
2019-03-25T06:43:38.054Z,74.40
2019-03-25T06:46:08.624Z,74.30
2019-03-25T06:48:39.234Z,74.00
2019-03-25T06:51:09.894Z,73.70
2019-03-25T06:53:40.430Z,73.60
2019-03-25T06:56:11.034Z,73.80
2019-03-25T06:58:41.577Z,73.90
2019-03-25T07:01:12.464Z,73.90
2019-03-25T07:03:43.348Z,74.00
2019-03-25T07:06:14.007Z,74.10
2019-03-25T07:08:44.662Z,74.00
2019-03-25T07:11:15.256Z,73.20
2019-03-25T07:13:46.866Z,72.40
2019-03-25T07:16:17.521Z,71.70
2019-03-25T07:18:48.067Z,71.00
2019-03-25T07:21:20.476Z,70.90
2019-03-25T07:23:50.899Z,71.30
2019-03-25T07:26:21.487Z,71.90
2019-03-25T07:28:52.006Z,73.80
2019-03-25T07:31:22.587Z,72.50
2019-03-25T07:33:53.126Z,72.20
2019-03-25T07:36:23.797Z,72.20
2019-03-25T07:38:54.371Z,72.30
2019-03-25T07:41:24.952Z,73.50
2019-03-25T07:43:55.524Z,74.40
2019-03-25T07:46:26.098Z,75.50
2019-03-25T07:48:56.674Z,76.80
2019-03-25T07:51:28.306Z,77.40
2019-03-25T07:53:58.909Z,77.70
2019-03-25T07:56:29.575Z,78.00
2019-03-25T07:59:00.123Z,78.40
2019-03-25T08:01:30.707Z,78.90
2019-03-25T08:04:01.339Z,79.40
2019-03-25T08:06:31.983Z,80.00
2019-03-25T08:09:03.931Z,80.30
2019-03-25T08:11:34.949Z,80.90
2019-03-25T08:14:05.546Z,81.30
2019-03-25T08:16:36.270Z,81.40
2019-03-25T08:19:06.795Z,81.10
2019-03-25T08:21:37.363Z,80.10
2019-03-25T08:24:07.924Z,79.40
2019-03-25T08:26:38.596Z,78.60
2019-03-25T08:29:10.815Z,75.30
2019-03-25T08:31:41.473Z,70.90
2019-03-25T08:34:12.039Z,69.50
2019-03-25T08:36:42.620Z,66.60
2019-03-25T08:39:13.249Z,64.70
2019-03-25T08:41:43.822Z,62.30
2019-03-25T08:44:14.451Z,59.80
2019-03-25T08:46:45.131Z,57.40
2019-03-25T08:49:15.729Z,54.90
2019-03-25T08:51:46.326Z,53.20
2019-03-25T08:54:16.908Z,54.00
2019-03-25T08:56:47.551Z,56.80
2019-03-25T08:59:18.188Z,58.50
2019-03-25T09:01:48.895Z,60.10
2019-03-25T09:04:19.467Z,62.80
2019-03-25T09:06:50.149Z,65.70
2019-03-25T09:09:20.727Z,67.90
2019-03-25T09:11:51.745Z,69.30
2019-03-25T09:14:22.696Z,70.10
2019-03-25T09:16:53.302Z,70.00
2019-03-25T09:19:24.113Z,70.50
2019-03-25T09:21:54.775Z,70.90
2019-03-25T09:24:25.453Z,69.30
2019-03-25T09:26:56.064Z,65.40
2019-03-25T09:29:27.692Z,62.40
2019-03-25T09:31:58.313Z,59.50
2019-03-25T09:34:28.939Z,56.50
2019-03-25T09:36:59.700Z,54.90
2019-03-25T09:39:30.427Z,54.00
2019-03-25T09:42:01.210Z,53.20
2019-03-25T09:44:31.958Z,52.30
2019-03-25T09:47:02.580Z,52.50
2019-03-25T09:49:33.115Z,53.10
2019-03-25T09:52:03.731Z,52.60
2019-03-25T09:54:34.276Z,51.10
2019-03-25T09:57:05.047Z,51.20
2019-03-25T09:59:35.736Z,49.80
2019-03-25T10:02:06.327Z,48.30
2019-03-25T10:04:36.911Z,46.10
2019-03-25T10:07:07.613Z,45.00
2019-03-25T10:09:38.259Z,44.10
2019-03-25T10:12:08.996Z,44.10
2019-03-25T10:14:39.658Z,44.50
2019-03-25T10:17:10.267Z,44.60
2019-03-25T10:19:41.024Z,46.00
2019-03-25T10:22:11.891Z,45.90
2019-03-25T10:24:42.467Z,45.30
2019-03-25T10:27:13.051Z,45.90
2019-03-25T10:29:43.693Z,48.00
2019-03-25T10:32:14.564Z,51.10
2019-03-25T10:34:45.173Z,53.70
2019-03-25T10:37:15.859Z,55.20
2019-03-25T10:39:46.607Z,55.50
2019-03-25T10:42:17.454Z,57.10
2019-03-25T10:44:48.060Z,61.80
2019-03-25T10:47:18.715Z,69.30
2019-03-25T10:49:49.351Z,73.20
2019-03-25T10:52:19.951Z,74.80
2019-03-25T10:54:50.609Z,74.40
2019-03-25T10:57:21.495Z,72.90
2019-03-25T10:59:52.132Z,71.10
2019-03-25T11:02:23.026Z,69.70
2019-03-25T11:04:53.604Z,69.50
2019-03-25T11:07:24.352Z,68.50
2019-03-25T11:09:56.228Z,67.70
2019-03-25T11:12:26.970Z,64.30
2019-03-25T11:14:57.723Z,64.50
2019-03-25T11:17:28.323Z,62.50
2019-03-25T11:19:58.910Z,62.00
2019-03-25T11:22:30.182Z,62.70
2019-03-25T11:25:00.932Z,63.60
2019-03-25T11:27:31.561Z,64.50
2019-03-25T11:30:02.225Z,64.60
2019-03-25T11:32:32.857Z,66.10
2019-03-25T11:35:04.865Z,68.30
2019-03-25T11:37:35.728Z,69.60
2019-03-25T11:40:07.106Z,71.30
2019-03-25T11:42:37.692Z,72.40
2019-03-25T11:45:09.040Z,72.50
2019-03-25T11:47:40.770Z,71.40
2019-03-25T11:50:11.779Z,70.20
2019-03-25T11:52:42.910Z,70.10
2019-03-25T11:55:13.574Z,69.00
2019-03-25T11:57:44.199Z,67.60
2019-03-25T12:00:15.984Z,66.70
2019-03-25T12:02:46.571Z,66.90
2019-03-25T12:05:17.308Z,66.80
2019-03-25T12:07:47.959Z,65.80
2019-03-25T12:10:18.593Z,65.70
2019-03-25T12:12:49.183Z,65.00
2019-03-25T12:15:19.811Z,64.80
2019-03-25T12:17:50.490Z,64.60
2019-03-25T12:20:22.537Z,64.90
2019-03-25T12:22:54.059Z,65.40
2019-03-25T12:25:24.631Z,64.60
2019-03-25T12:27:55.329Z,64.50
2019-03-25T12:30:25.903Z,63.20
2019-03-25T12:33:03.958Z,61.90
2019-03-25T12:35:28.828Z,60.70
2019-03-25T12:37:59.488Z,59.40
2019-03-25T12:40:31.015Z,58.90
2019-03-25T12:43:01.987Z,59.10
2019-03-25T12:45:32.637Z,59.70
2019-03-25T12:48:03.297Z,60.60
2019-03-25T12:50:33.845Z,61.20
2019-03-25T12:53:04.579Z,62.50
2019-03-25T12:55:36.322Z,61.90
2019-03-25T12:58:07.653Z,59.40
2019-03-25T13:00:44.912Z,57.70
2019-03-25T13:03:15.478Z,56.80
2019-03-25T13:05:46.079Z,55.90
2019-03-25T13:08:16.639Z,54.40
2019-03-25T13:10:47.304Z,54.50
2019-03-25T13:13:17.999Z,54.00
2019-03-25T13:15:48.535Z,54.40
2019-03-25T13:18:19.137Z,55.60
2019-03-25T13:20:49.682Z,56.60
2019-03-25T13:23:20.278Z,57.60
2019-03-25T13:25:50.810Z,59.40
2019-03-25T13:28:21.479Z,63.60
2019-03-25T13:30:52.007Z,66.60
2019-03-25T13:33:22.639Z,67.70
2019-03-25T13:35:54.316Z,67.50
2019-03-25T13:38:24.970Z,67.80
2019-03-25T13:40:55.555Z,67.60
2019-03-25T13:43:26.154Z,66.60
2019-03-25T13:46:05.003Z,66.00
2019-03-25T13:48:29.047Z,65.40
2019-03-25T13:50:59.587Z,63.70
2019-03-25T13:53:30.212Z,62.50
2019-03-25T13:56:00.845Z,62.50
2019-03-25T13:58:31.425Z,62.40
2019-03-25T14:01:01.955Z,61.30
2019-03-25T14:03:32.595Z,60.90
2019-03-25T14:06:03.244Z,60.50
2019-03-25T14:08:33.859Z,60.90
2019-03-25T14:11:04.498Z,61.60
2019-03-25T14:13:35.074Z,62.80
2019-03-25T14:16:05.683Z,63.20
2019-03-25T14:18:36.355Z,62.00
2019-03-25T14:21:07.899Z,61.50
2019-03-25T14:23:38.520Z,61.70
2019-03-25T14:26:09.168Z,60.90
2019-03-25T14:28:39.785Z,59.90
2019-03-25T14:31:10.375Z,59.80
2019-03-25T14:33:42.127Z,60.70
2019-03-25T14:36:12.799Z,61.20
2019-03-25T14:38:43.506Z,60.40
2019-03-25T14:41:14.183Z,59.70
2019-03-25T14:43:44.910Z,59.20
2019-03-25T14:46:15.558Z,58.80
2019-03-25T14:48:46.180Z,59.10
2019-03-25T14:51:16.708Z,58.40
2019-03-25T14:53:47.431Z,58.40
2019-03-25T14:56:17.984Z,57.70
2019-03-25T14:58:48.628Z,57.70
2019-03-25T15:01:19.174Z,57.60
2019-03-25T15:03:49.828Z,57.90
2019-03-25T15:06:20.403Z,58.00
2019-03-25T15:08:51.019Z,58.50
2019-03-25T15:11:21.559Z,58.20
2019-03-25T15:13:52.328Z,58.10
2019-03-25T15:16:22.870Z,58.50
2019-03-25T15:18:53.540Z,59.90
2019-03-25T15:21:25.232Z,61.30
2019-03-25T15:23:55.804Z,61.90
2019-03-25T15:26:26.361Z,62.40
2019-03-25T15:28:56.923Z,61.90
2019-03-25T15:31:27.540Z,59.90
2019-03-25T15:33:58.091Z,59.10
2019-03-25T15:36:28.646Z,59.20
2019-03-25T15:38:59.243Z,59.60
2019-03-25T15:41:29.791Z,59.70
2019-03-25T15:44:00.451Z,59.20
2019-03-25T15:46:30.998Z,59.20
2019-03-25T15:49:01.567Z,59.00
2019-03-25T15:51:32.126Z,59.40
2019-03-25T15:54:02.707Z,59.30
2019-03-25T15:56:33.243Z,59.60
2019-03-25T15:59:03.816Z,60.20
2019-03-25T16:01:34.434Z,60.70
2019-03-25T16:04:05.133Z,61.00
2019-03-25T16:06:35.678Z,61.50
2019-03-25T16:09:08.243Z,61.90
2019-03-25T16:11:38.860Z,61.50
2019-03-25T16:14:09.439Z,61.40
2019-03-25T16:16:40.003Z,61.60
2019-03-25T16:19:10.650Z,62.10
2019-03-25T16:21:41.240Z,62.00
2019-03-25T16:24:11.895Z,62.60
2019-03-25T16:26:42.456Z,62.90
2019-03-25T16:29:13.054Z,63.20
2019-03-25T16:31:43.579Z,63.50
2019-03-25T16:34:14.233Z,63.70
2019-03-25T16:36:44.763Z,63.80
2019-03-25T16:39:15.455Z,64.20
2019-03-25T16:41:45.996Z,64.00
2019-03-25T16:44:16.923Z,64.00
2019-03-25T16:46:47.567Z,64.30
2019-03-25T16:49:18.147Z,65.20
2019-03-25T16:51:48.780Z,66.90
2019-03-25T16:54:19.405Z,69.00
2019-03-25T16:56:49.975Z,71.10
2019-03-25T16:59:20.637Z,71.70
2019-03-25T17:01:51.206Z,72.60
2019-03-25T17:04:22.929Z,73.40
2019-03-25T17:06:53.617Z,73.40
2019-03-25T17:09:24.201Z,73.20
2019-03-25T17:11:54.741Z,73.30
2019-03-25T17:14:25.317Z,73.30
2019-03-25T17:16:55.867Z,73.30
2019-03-25T17:19:26.481Z,73.10
2019-03-25T17:21:58.346Z,72.70
2019-03-25T17:24:29.279Z,72.80
2019-03-25T17:26:59.912Z,73.00
2019-03-25T17:29:30.481Z,73.70
2019-03-25T17:32:01.045Z,74.20
2019-03-25T17:34:31.651Z,74.90
2019-03-25T17:37:03.270Z,76.20
2019-03-25T17:39:33.932Z,76.10
2019-03-25T17:42:04.594Z,76.40
2019-03-25T17:44:35.191Z,76.70
2019-03-25T17:47:06.833Z,77.50
2019-03-25T17:49:37.419Z,78.80
2019-03-25T17:52:08.919Z,80.00
2019-03-25T17:54:39.495Z,80.10
2019-03-25T17:57:10.053Z,80.00
2019-03-25T17:59:40.727Z,80.10
2019-03-25T18:02:12.561Z,80.30
2019-03-25T18:04:43.133Z,80.20
2019-03-25T18:07:13.670Z,80.40
2019-03-25T18:09:44.259Z,80.30
2019-03-25T18:12:14.800Z,80.40
2019-03-25T18:14:45.379Z,79.90
2019-03-25T18:17:16.021Z,80.00
2019-03-25T18:19:46.779Z,80.50
2019-03-25T18:22:17.320Z,80.60
2019-03-25T18:24:47.889Z,81.00
2019-03-25T18:27:18.440Z,80.30
2019-03-25T18:29:49.094Z,80.20
2019-03-25T18:32:19.714Z,80.50
2019-03-25T18:34:50.298Z,80.20
2019-03-25T18:37:20.836Z,79.50
2019-03-25T18:39:51.576Z,79.20
2019-03-25T18:42:22.208Z,78.90
2019-03-25T18:44:52.863Z,79.10
2019-03-25T18:47:23.483Z,79.10
2019-03-25T18:49:54.065Z,79.30
2019-03-25T18:52:24.591Z,79.60
2019-03-25T18:54:55.130Z,79.60
2019-03-25T18:57:25.687Z,79.60
2019-03-25T18:59:56.246Z,79.60
2019-03-25T19:02:26.934Z,79.40
2019-03-25T19:04:57.604Z,79.40
2019-03-25T19:07:32.269Z,79.50
2019-03-25T19:10:03.320Z,79.60
2019-03-25T19:12:33.951Z,79.80
2019-03-25T19:15:04.743Z,79.70
2019-03-25T19:17:35.351Z,79.90
2019-03-25T19:20:06.785Z,80.00
2019-03-25T19:22:37.332Z,80.70
2019-03-25T19:25:08.558Z,79.70
2019-03-25T19:27:39.529Z,79.30
2019-03-25T19:30:11.271Z,79.40
2019-03-25T19:32:45.337Z,79.10
2019-03-25T19:35:16.027Z,79.30
2019-03-25T19:37:46.674Z,79.20
2019-03-25T19:40:17.461Z,79.10
2019-03-25T19:42:50.236Z,79.10
2019-03-25T19:45:21.021Z,79.30
2019-03-25T19:47:51.704Z,79.30
2019-03-25T19:50:24.921Z,79.50
2019-03-25T19:52:55.710Z,79.50
2019-03-25T19:55:27.852Z,79.30
2019-03-25T19:57:58.522Z,79.00
2019-03-25T20:00:37.282Z,78.80
2019-03-25T20:03:09.795Z,78.60
2019-03-25T20:05:40.489Z,78.80
2019-03-25T20:08:11.232Z,78.70
2019-03-25T20:10:42.062Z,78.60
2019-03-25T20:13:12.739Z,78.70
2019-03-25T20:15:46.518Z,78.60
2019-03-25T20:18:15.621Z,78.30
2019-03-25T20:20:46.332Z,78.20
2019-03-25T20:23:17.023Z,78.10
2019-03-25T20:25:47.758Z,79.10
2019-03-25T20:28:18.462Z,78.10
2019-03-25T20:30:49.121Z,78.30
2019-03-25T20:33:20.973Z,77.90
2019-03-25T20:35:51.724Z,77.60
2019-03-25T20:38:22.456Z,77.80
2019-03-25T20:40:53.117Z,78.20
2019-03-25T20:43:24.069Z,78.70
2019-03-25T20:45:54.787Z,79.30
2019-03-25T20:48:26.829Z,79.40
2019-03-25T20:50:57.616Z,79.50
2019-03-25T20:53:28.406Z,79.50
2019-03-25T20:55:59.185Z,79.50
2019-03-25T20:58:29.886Z,79.70
2019-03-25T21:01:01.236Z,80.10
2019-03-25T21:03:32.010Z,80.10
2019-03-25T21:06:03.347Z,79.80
2019-03-25T21:08:34.152Z,79.70
2019-03-25T21:11:04.991Z,79.70
2019-03-25T21:13:35.662Z,79.90
2019-03-25T21:16:06.631Z,80.20
2019-03-25T21:18:38.218Z,80.30
2019-03-25T21:21:09.115Z,80.50
2019-03-25T21:23:39.804Z,80.10
2019-03-25T21:26:11.158Z,80.10
2019-03-25T21:28:43.328Z,80.30
2019-03-25T21:31:14.095Z,80.30
2019-03-25T21:33:44.880Z,80.30
2019-03-25T21:36:15.710Z,80.30
2019-03-25T21:38:46.390Z,80.20
2019-03-25T21:41:17.152Z,80.30
2019-03-25T21:43:47.798Z,79.90
2019-03-25T21:46:18.526Z,79.60
2019-03-25T21:48:49.236Z,79.60
2019-03-25T21:51:19.918Z,79.70
2019-03-25T21:53:53.032Z,80.30
2019-03-25T21:56:22.868Z,80.20
2019-03-25T21:58:54.636Z,80.50
2019-03-25T22:01:25.416Z,80.70
2019-03-25T22:03:56.033Z,80.70
2019-03-25T22:06:26.986Z,80.70
2019-03-25T22:08:57.647Z,81.20
2019-03-25T22:11:28.244Z,80.90
2019-03-25T22:13:58.903Z,80.90
2019-03-25T22:16:29.591Z,80.60
2019-03-25T22:19:00.265Z,80.60
2019-03-25T22:21:30.896Z,80.20
2019-03-25T22:24:01.720Z,80.00
2019-03-25T22:26:32.336Z,80.00
2019-03-25T22:29:02.941Z,79.70
2019-03-25T22:31:34.618Z,79.70
2019-03-25T22:34:05.344Z,79.70
2019-03-25T22:36:35.947Z,79.90
2019-03-25T22:39:07.933Z,79.90
2019-03-25T22:41:38.591Z,79.70
2019-03-25T22:44:09.147Z,79.60
2019-03-25T22:46:39.924Z,79.30
2019-03-25T22:49:10.771Z,79.20
2019-03-25T22:51:41.431Z,78.90
2019-03-25T22:54:12.014Z,78.80
2019-03-25T22:56:42.693Z,78.50
2019-03-25T22:59:13.320Z,78.30
2019-03-25T23:01:44.148Z,78.10
2019-03-25T23:04:14.776Z,78.10
2019-03-25T23:06:45.427Z,78.30
2019-03-25T23:09:16.053Z,78.40
2019-03-25T23:11:46.677Z,78.60
2019-03-25T23:14:17.270Z,78.70
2019-03-25T23:16:47.976Z,79.20
2019-03-25T23:19:18.783Z,78.70
2019-03-25T23:21:49.549Z,78.80
2019-03-25T23:24:20.266Z,78.70
2019-03-25T23:26:50.810Z,78.80
2019-03-25T23:29:21.403Z,78.80
2019-03-25T23:31:52.120Z,79.10
2019-03-25T23:34:22.702Z,79.10
2019-03-25T23:36:53.235Z,79.10
2019-03-25T23:39:25.163Z,79.20
2019-03-25T23:41:56.051Z,79.40
2019-03-25T23:44:26.625Z,79.40
2019-03-25T23:46:57.263Z,80.20
2019-03-25T23:49:27.779Z,79.30
2019-03-25T23:51:58.342Z,80.00
2019-03-25T23:54:28.866Z,79.20
2019-03-25T23:56:59.441Z,79.30
2019-03-25T23:59:29.972Z,79.30
